createdAt,value
2022-08-27T00:00:15.501Z,27.91
2022-08-27T00:00:38.613Z,27.95
2022-08-27T00:01:00.336Z,27.93
2022-08-27T00:01:23.365Z,27.93
2022-08-27T00:01:45.104Z,27.92
2022-08-27T00:02:08.278Z,27.88
2022-08-27T00:02:30.098Z,27.89
2022-08-27T00:02:52.782Z,27.87
2022-08-27T00:03:15.339Z,27.88
2022-08-27T00:03:37.153Z,27.86
2022-08-27T00:03:59.208Z,27.86
2022-08-27T00:04:22.095Z,27.83
2022-08-27T00:04:44.405Z,27.82
2022-08-27T00:05:06.734Z,27.83
2022-08-27T00:05:28.576Z,27.83
2022-08-27T00:05:51.212Z,27.82
2022-08-27T00:06:14.189Z,27.82
2022-08-27T00:06:36.572Z,27.82
2022-08-27T00:06:59.517Z,27.80
2022-08-27T00:07:22.184Z,27.80
2022-08-27T00:07:44.264Z,27.81
2022-08-27T00:08:07.627Z,27.82
2022-08-27T00:08:29.847Z,27.79
2022-08-27T00:08:53.375Z,27.81
2022-08-27T00:09:15.191Z,27.82
2022-08-27T00:09:38.041Z,27.72
2022-08-27T00:09:59.758Z,27.74
2022-08-27T00:10:25.705Z,27.77
2022-08-27T00:10:47.397Z,27.77
2022-08-27T00:11:09.478Z,27.78
2022-08-27T00:11:31.238Z,27.80
2022-08-27T00:11:54.420Z,27.77
2022-08-27T00:12:16.144Z,27.78
2022-08-27T00:12:38.190Z,27.81
2022-08-27T00:13:00.826Z,27.80
2022-08-27T00:13:23.472Z,27.80
2022-08-27T00:13:46.050Z,27.80
2022-08-27T00:14:07.755Z,27.80
2022-08-27T00:14:29.785Z,27.81
2022-08-27T00:14:52.391Z,27.80
2022-08-27T00:15:17.864Z,27.79
2022-08-27T00:15:41.185Z,27.80
2022-08-27T00:16:03.391Z,27.80
2022-08-27T00:16:26.166Z,27.78
2022-08-27T00:16:50.488Z,27.76
2022-08-27T00:17:12.295Z,27.73
2022-08-27T00:17:37.221Z,27.66
2022-08-27T00:17:59.114Z,27.71
2022-08-27T00:18:22.833Z,27.69
2022-08-27T00:18:47.805Z,27.68
2022-08-27T00:19:10.919Z,27.66
2022-08-27T00:19:33.742Z,27.66
2022-08-27T00:19:55.710Z,27.66
2022-08-27T00:20:21.047Z,27.68
2022-08-27T00:20:44.189Z,27.66
2022-08-27T00:21:07.360Z,27.69
2022-08-27T00:21:30.609Z,27.62
2022-08-27T00:21:52.367Z,27.64
2022-08-27T00:22:14.096Z,27.65
2022-08-27T00:22:36.837Z,27.61
2022-08-27T00:22:58.545Z,27.62
2022-08-27T00:23:20.277Z,27.61
2022-08-27T00:23:42.040Z,27.60
2022-08-27T00:24:05.269Z,27.61
2022-08-27T00:24:27.067Z,27.63
2022-08-27T00:24:49.284Z,27.63
2022-08-27T00:25:14.767Z,27.63
2022-08-27T00:25:36.508Z,27.65
2022-08-27T00:25:58.363Z,27.67
2022-08-27T00:26:20.178Z,27.66
2022-08-27T00:26:43.531Z,27.66
2022-08-27T00:27:05.615Z,27.66
2022-08-27T00:27:28.807Z,27.64
2022-08-27T00:27:50.507Z,27.63
2022-08-27T00:28:59.267Z,27.62
2022-08-27T00:29:21.385Z,27.60
2022-08-27T00:29:43.199Z,27.60
2022-08-27T00:30:07.876Z,27.61
2022-08-27T00:30:30.678Z,27.63
2022-08-27T00:30:55.484Z,27.61
2022-08-27T00:31:17.800Z,27.57
2022-08-27T00:31:39.685Z,27.62
2022-08-27T00:32:02.486Z,27.65
2022-08-27T00:32:24.274Z,27.64
2022-08-27T00:32:46.203Z,27.64
2022-08-27T00:33:07.997Z,27.63
2022-08-27T00:33:31.553Z,27.65
2022-08-27T00:33:53.324Z,27.64
2022-08-27T00:34:15.086Z,27.62
2022-08-27T00:34:37.810Z,27.63
2022-08-27T00:34:59.574Z,27.63
2022-08-27T00:35:21.290Z,27.63
2022-08-27T00:35:43.961Z,27.67
2022-08-27T00:36:06.810Z,27.66
2022-08-27T00:36:28.502Z,27.66
2022-08-27T00:36:50.598Z,27.66
2022-08-27T00:37:12.272Z,27.67
2022-08-27T00:37:35.063Z,27.68
2022-08-27T00:37:56.728Z,27.65
2022-08-27T00:38:20.154Z,27.65
2022-08-27T00:38:42.278Z,27.66
2022-08-27T00:39:05.750Z,27.65
2022-08-27T00:39:27.569Z,27.66
2022-08-27T00:39:49.287Z,27.65
2022-08-27T00:40:15.608Z,27.66
2022-08-27T00:40:37.610Z,27.66
2022-08-27T00:41:01.137Z,27.65
2022-08-27T00:41:23.075Z,27.65
2022-08-27T00:41:44.760Z,27.66
2022-08-27T00:42:07.861Z,27.63
2022-08-27T00:42:31.108Z,27.63
2022-08-27T00:42:53.434Z,27.61
2022-08-27T00:43:21.519Z,27.65
2022-08-27T00:43:48.768Z,27.67
2022-08-27T00:44:12.627Z,27.68
2022-08-27T00:44:34.812Z,27.66
2022-08-27T00:44:56.822Z,27.65
2022-08-27T00:45:22.965Z,27.62
2022-08-27T00:45:46.477Z,27.65
2022-08-27T00:46:18.903Z,27.66
2022-08-27T00:46:43.771Z,27.65
2022-08-27T00:47:11.798Z,27.65
2022-08-27T00:47:45.339Z,27.62
2022-08-27T00:48:10.969Z,27.62
2022-08-27T00:48:36.028Z,27.64
2022-08-27T00:49:03.720Z,27.65
2022-08-27T00:49:36.745Z,27.64
2022-08-27T00:50:04.107Z,27.63
2022-08-27T00:50:36.112Z,27.62
2022-08-27T00:50:58.164Z,27.59
2022-08-27T00:51:21.449Z,27.59
2022-08-27T00:51:46.536Z,27.58
2022-08-27T00:52:17.088Z,27.57
2022-08-27T00:52:44.295Z,27.56
2022-08-27T00:53:09.027Z,27.55
2022-08-27T00:53:34.159Z,27.57
2022-08-27T00:53:58.046Z,27.58
2022-08-27T00:54:21.894Z,27.56
2022-08-27T00:54:43.822Z,27.55
2022-08-27T00:55:11.812Z,27.55
2022-08-27T00:55:39.028Z,27.57
2022-08-27T00:56:06.665Z,27.58
2022-08-27T00:56:34.429Z,27.58
2022-08-27T00:56:58.350Z,27.58
2022-08-27T00:57:20.225Z,27.56
2022-08-27T00:57:43.639Z,27.55
2022-08-27T00:58:15.562Z,27.60
2022-08-27T00:58:41.915Z,27.59
2022-08-27T00:59:04.405Z,27.57
2022-08-27T00:59:29.247Z,27.60
2022-08-27T00:59:51.978Z,27.55
2022-08-27T01:00:17.122Z,27.60
2022-08-27T01:00:39.003Z,27.61
2022-08-27T01:01:01.311Z,27.61
2022-08-27T01:01:28.335Z,27.59
2022-08-27T01:02:18.324Z,27.63
2022-08-27T01:02:42.018Z,27.65
2022-08-27T01:03:04.236Z,27.63
2022-08-27T01:03:27.168Z,27.63
2022-08-27T01:03:52.580Z,27.60
2022-08-27T01:04:14.209Z,27.60
2022-08-27T01:04:38.678Z,27.59
2022-08-27T01:05:04.866Z,27.59
2022-08-27T01:05:28.000Z,27.57
2022-08-27T01:05:50.635Z,27.53
2022-08-27T01:06:16.165Z,27.55
2022-08-27T01:06:39.074Z,27.57
2022-08-27T01:07:02.320Z,27.54
2022-08-27T01:07:28.561Z,27.56
2022-08-27T01:07:53.851Z,27.57
2022-08-27T01:08:23.792Z,27.54
2022-08-27T01:08:50.996Z,27.56
2022-08-27T01:09:17.188Z,27.47
2022-08-27T01:09:39.228Z,27.49
2022-08-27T01:10:03.696Z,27.49
2022-08-27T01:10:28.474Z,27.44
2022-08-27T01:10:51.799Z,27.45
2022-08-27T01:11:13.644Z,27.43
2022-08-27T01:11:38.825Z,27.44
2022-08-27T01:12:00.574Z,27.42
2022-08-27T01:12:22.649Z,27.40
2022-08-27T01:12:52.280Z,27.39
2022-08-27T01:13:21.821Z,27.37
2022-08-27T01:14:04.441Z,27.37
2022-08-27T01:14:27.174Z,27.35
2022-08-27T01:14:49.007Z,27.31
2022-08-27T01:15:19.473Z,27.30
2022-08-27T01:15:42.996Z,27.30
2022-08-27T01:16:07.759Z,27.31
2022-08-27T01:16:37.266Z,27.34
2022-08-27T01:17:02.872Z,27.34
2022-08-27T01:17:24.922Z,27.32
2022-08-27T01:17:48.398Z,27.33
2022-08-27T01:18:13.467Z,27.33
2022-08-27T01:18:37.539Z,27.32
2022-08-27T01:19:01.099Z,27.31
2022-08-27T01:19:29.098Z,27.28
2022-08-27T01:19:54.123Z,27.26
2022-08-27T01:20:19.945Z,27.27
2022-08-27T01:20:49.937Z,27.28
2022-08-27T01:21:24.559Z,27.30
2022-08-27T01:21:54.691Z,27.31
2022-08-27T01:22:27.865Z,27.34
2022-08-27T01:23:00.083Z,27.34
2022-08-27T01:23:27.321Z,27.32
2022-08-27T01:23:55.306Z,27.31
2022-08-27T01:24:31.328Z,27.28
2022-08-27T01:24:56.078Z,27.29
2022-08-27T01:25:19.832Z,27.28
2022-08-27T01:25:43.110Z,27.27
2022-08-27T01:26:08.344Z,27.27
2022-08-27T01:26:30.828Z,27.30
2022-08-27T01:26:53.251Z,27.29
2022-08-27T01:27:19.125Z,27.27
2022-08-27T01:27:43.130Z,27.27
2022-08-27T01:28:05.690Z,27.26
2022-08-27T01:28:32.104Z,27.26
2022-08-27T01:29:00.669Z,27.25
2022-08-27T01:29:22.451Z,27.25
2022-08-27T01:29:45.618Z,27.28
2022-08-27T01:30:10.212Z,27.28
2022-08-27T01:30:33.201Z,27.26
2022-08-27T01:30:54.920Z,27.24
2022-08-27T01:31:16.767Z,27.23
2022-08-27T01:31:39.227Z,27.22
2022-08-27T01:32:08.672Z,27.25
2022-08-27T01:32:32.840Z,27.25
2022-08-27T01:32:54.545Z,27.30
2022-08-27T01:33:20.759Z,27.30
2022-08-27T01:33:54.200Z,27.30
2022-08-27T01:34:16.977Z,27.29
2022-08-27T01:34:38.894Z,27.28
2022-08-27T01:35:02.060Z,27.27
2022-08-27T01:35:24.991Z,27.26
2022-08-27T01:35:50.698Z,27.26
2022-08-27T01:36:12.593Z,27.30
2022-08-27T01:36:34.365Z,27.29
2022-08-27T01:36:57.542Z,27.30
2022-08-27T01:37:23.910Z,27.29
2022-08-27T01:37:49.379Z,27.28
2022-08-27T01:38:30.116Z,27.28
2022-08-27T01:38:53.831Z,27.26
2022-08-27T01:39:16.501Z,27.27
2022-08-27T01:39:41.900Z,27.26
2022-08-27T01:40:05.056Z,27.22
2022-08-27T01:40:28.007Z,27.23
2022-08-27T01:40:50.224Z,27.22
2022-08-27T01:41:12.785Z,27.22
2022-08-27T01:41:34.539Z,27.20
2022-08-27T01:42:03.744Z,27.18
2022-08-27T01:42:30.142Z,27.18
2022-08-27T01:42:54.866Z,27.16
2022-08-27T01:43:17.660Z,27.21
2022-08-27T01:43:39.366Z,27.22
2022-08-27T01:44:01.237Z,27.18
2022-08-27T01:44:22.956Z,27.18
2022-08-27T01:44:48.505Z,27.18
2022-08-27T01:45:13.067Z,27.17
2022-08-27T01:45:37.374Z,27.16
2022-08-27T01:45:59.157Z,27.16
2022-08-27T01:46:22.233Z,27.16
2022-08-27T01:46:45.579Z,27.16
2022-08-27T01:47:07.344Z,27.15
2022-08-27T01:47:30.617Z,27.18
2022-08-27T01:47:53.541Z,27.18
2022-08-27T01:48:16.664Z,27.23
2022-08-27T01:48:38.481Z,27.22
2022-08-27T01:49:00.216Z,27.21
2022-08-27T01:49:21.972Z,27.18
2022-08-27T01:49:44.017Z,27.21
2022-08-27T01:50:11.256Z,27.19
2022-08-27T01:50:38.090Z,27.24
2022-08-27T01:50:59.898Z,27.21
2022-08-27T01:51:22.937Z,27.18
2022-08-27T01:51:44.668Z,27.19
2022-08-27T01:52:06.466Z,27.18
2022-08-27T01:52:31.037Z,27.19
2022-08-27T01:52:54.754Z,27.19
2022-08-27T01:53:24.387Z,27.18
2022-08-27T01:53:48.045Z,27.18
2022-08-27T01:54:10.880Z,27.17
2022-08-27T01:54:34.912Z,27.14
2022-08-27T01:55:08.427Z,27.07
2022-08-27T01:55:30.200Z,27.15
2022-08-27T01:55:55.444Z,27.14
2022-08-27T01:56:17.303Z,27.19
2022-08-27T01:56:39.361Z,27.18
2022-08-27T01:57:02.863Z,27.21
2022-08-27T01:57:27.601Z,27.20
2022-08-27T01:57:49.424Z,27.21
2022-08-27T01:58:15.147Z,27.22
2022-08-27T01:58:38.255Z,27.17
2022-08-27T01:59:01.059Z,27.19
2022-08-27T01:59:23.200Z,27.19
2022-08-27T02:00:00.900Z,27.18
2022-08-27T02:00:26.799Z,27.19
2022-08-27T02:00:56.583Z,27.20
2022-08-27T02:01:19.541Z,27.17
2022-08-27T02:01:43.786Z,27.17
2022-08-27T02:02:07.227Z,27.10
2022-08-27T02:02:32.492Z,27.12
2022-08-27T02:02:54.364Z,27.09
2022-08-27T02:03:18.545Z,27.07
2022-08-27T02:03:42.139Z,27.11
2022-08-27T02:04:04.290Z,27.13
2022-08-27T02:04:26.213Z,27.11
2022-08-27T02:04:47.888Z,27.14
2022-08-27T02:05:11.404Z,27.18
2022-08-27T02:05:44.681Z,27.17
2022-08-27T02:06:11.482Z,27.19
2022-08-27T02:06:33.564Z,27.20
2022-08-27T02:06:55.677Z,27.19
2022-08-27T02:07:18.249Z,27.21
2022-08-27T02:07:41.048Z,27.20
2022-08-27T02:08:04.129Z,27.21
2022-08-27T02:08:26.091Z,27.19
2022-08-27T02:08:48.213Z,27.21
2022-08-27T02:09:09.871Z,27.20
2022-08-27T02:09:33.179Z,27.19
2022-08-27T02:09:54.878Z,27.19
2022-08-27T02:10:22.629Z,27.19
2022-08-27T02:10:46.136Z,27.16
2022-08-27T02:11:09.983Z,27.17
2022-08-27T02:11:31.864Z,27.17
2022-08-27T02:11:53.648Z,27.13
2022-08-27T02:12:15.392Z,27.17
2022-08-27T02:12:38.152Z,27.17
2022-08-27T02:13:00.270Z,27.16
2022-08-27T02:13:21.979Z,27.17
2022-08-27T02:13:43.689Z,27.17
2022-08-27T02:14:12.830Z,27.16
2022-08-27T02:14:35.402Z,27.18
2022-08-27T02:14:57.332Z,27.18
2022-08-27T02:15:20.531Z,27.17
2022-08-27T02:15:42.888Z,27.19
2022-08-27T02:16:05.244Z,27.21
2022-08-27T02:16:27.183Z,27.19
2022-08-27T02:16:52.395Z,27.18
2022-08-27T02:17:14.711Z,27.17
2022-08-27T02:17:36.621Z,27.18
2022-08-27T02:17:58.422Z,27.15
2022-08-27T02:18:21.918Z,27.12
2022-08-27T02:18:43.628Z,27.13
2022-08-27T02:19:06.081Z,27.12
2022-08-27T02:19:32.571Z,27.13
2022-08-27T02:19:54.588Z,27.13
2022-08-27T02:20:17.142Z,27.14
2022-08-27T02:20:39.712Z,27.13
2022-08-27T02:21:02.471Z,27.14
2022-08-27T02:21:24.174Z,27.10
2022-08-27T02:21:45.824Z,27.11
2022-08-27T02:22:07.706Z,27.07
2022-08-27T02:22:30.395Z,27.02
2022-08-27T02:22:52.079Z,27.04
2022-08-27T02:23:16.123Z,27.05
2022-08-27T02:23:41.974Z,27.06
2022-08-27T02:24:04.809Z,27.04
2022-08-27T02:24:28.058Z,27.04
2022-08-27T02:24:55.655Z,27.04
2022-08-27T02:25:27.178Z,27.04
2022-08-27T02:25:53.909Z,27.04
2022-08-27T02:26:25.551Z,27.04
2022-08-27T02:26:50.751Z,27.05
2022-08-27T02:27:13.655Z,27.05
2022-08-27T02:27:36.162Z,27.04
2022-08-27T02:28:00.505Z,27.04
2022-08-27T02:28:24.409Z,27.05
2022-08-27T02:28:46.735Z,27.05
2022-08-27T02:29:08.920Z,27.03
2022-08-27T02:29:30.712Z,27.06
2022-08-27T02:29:55.394Z,27.06
2022-08-27T02:30:24.382Z,27.09
2022-08-27T02:30:46.646Z,27.03
2022-08-27T02:31:08.781Z,27.05
2022-08-27T02:31:39.582Z,27.06
2022-08-27T02:32:07.225Z,27.06
2022-08-27T02:32:39.184Z,27.04
2022-08-27T02:33:03.481Z,27.01
2022-08-27T02:33:26.132Z,26.99
2022-08-27T02:33:48.813Z,27.00
2022-08-27T02:34:10.673Z,26.99
2022-08-27T02:34:33.328Z,27.01
2022-08-27T02:34:55.064Z,26.99
2022-08-27T02:35:18.195Z,27.01
2022-08-27T02:35:42.113Z,27.00
2022-08-27T02:36:06.090Z,27.00
2022-08-27T02:36:28.343Z,26.98
2022-08-27T02:36:49.988Z,26.98
2022-08-27T02:37:11.685Z,27.00
2022-08-27T02:37:34.456Z,26.99
2022-08-27T02:37:56.776Z,27.01
2022-08-27T02:38:20.069Z,27.00
2022-08-27T02:38:42.359Z,27.01
2022-08-27T02:39:04.572Z,26.97
2022-08-27T02:39:27.225Z,26.94
2022-08-27T02:39:48.932Z,26.93
2022-08-27T02:40:17.325Z,26.95
2022-08-27T02:40:41.976Z,26.94
2022-08-27T02:41:04.057Z,26.97
2022-08-27T02:41:26.647Z,26.95
2022-08-27T02:41:48.503Z,26.96
2022-08-27T02:42:11.339Z,26.97
2022-08-27T02:42:33.157Z,26.96
2022-08-27T02:42:54.859Z,26.96
2022-08-27T02:43:23.640Z,26.95
2022-08-27T02:43:47.668Z,26.95
2022-08-27T02:44:12.073Z,26.97
2022-08-27T02:44:35.854Z,26.95
2022-08-27T02:44:58.579Z,26.98
2022-08-27T02:45:20.880Z,26.99
2022-08-27T02:45:42.865Z,26.98
2022-08-27T02:46:04.881Z,26.97
2022-08-27T02:46:28.258Z,26.96
2022-08-27T02:46:50.231Z,26.96
2022-08-27T02:47:16.707Z,26.97
2022-08-27T02:47:38.914Z,26.94
2022-08-27T02:48:01.964Z,26.97
2022-08-27T02:48:24.617Z,26.97
2022-08-27T02:48:46.375Z,26.97
2022-08-27T02:49:09.465Z,26.92
2022-08-27T02:49:32.551Z,26.95
2022-08-27T02:49:54.401Z,26.96
2022-08-27T02:50:16.693Z,26.95
2022-08-27T02:50:39.050Z,26.95
2022-08-27T02:51:00.756Z,26.94
2022-08-27T02:51:23.694Z,26.93
2022-08-27T02:51:45.680Z,26.93
2022-08-27T02:52:08.238Z,26.91
2022-08-27T02:52:30.665Z,26.94
2022-08-27T02:52:53.395Z,26.94
2022-08-27T02:53:15.821Z,26.93
2022-08-27T02:53:37.964Z,26.93
2022-08-27T02:54:00.380Z,26.88
2022-08-27T02:54:25.561Z,26.92
2022-08-27T02:54:49.019Z,26.94
2022-08-27T02:55:10.940Z,26.94
2022-08-27T02:55:33.759Z,26.92
2022-08-27T02:55:58.228Z,26.94
2022-08-27T02:56:21.805Z,26.92
2022-08-27T02:56:43.799Z,26.92
2022-08-27T02:57:05.934Z,26.92
2022-08-27T02:57:28.858Z,26.94
2022-08-27T02:57:50.673Z,26.97
2022-08-27T02:58:15.414Z,26.98
2022-08-27T02:58:37.688Z,26.97
2022-08-27T02:59:00.417Z,26.98
2022-08-27T02:59:23.037Z,27.00
2022-08-27T02:59:45.227Z,26.98
2022-08-27T03:00:10.535Z,26.99
2022-08-27T03:00:33.719Z,26.97
2022-08-27T03:00:56.868Z,27.01
2022-08-27T03:01:18.777Z,27.00
2022-08-27T03:01:40.615Z,26.99
2022-08-27T03:02:03.597Z,27.01
2022-08-27T03:02:27.526Z,27.01
2022-08-27T03:02:49.757Z,27.01
2022-08-27T03:03:11.599Z,27.01
2022-08-27T03:03:34.339Z,27.02
2022-08-27T03:03:57.777Z,27.04
2022-08-27T03:04:19.838Z,27.04
2022-08-27T03:04:41.990Z,27.05
2022-08-27T03:05:04.049Z,27.05
2022-08-27T03:05:27.554Z,27.06
2022-08-27T03:05:49.262Z,27.03
2022-08-27T03:06:11.110Z,27.03
2022-08-27T03:06:32.768Z,27.05
2022-08-27T03:06:54.692Z,27.00
2022-08-27T03:07:18.894Z,27.04
2022-08-27T03:07:41.083Z,27.05
2022-08-27T03:08:03.377Z,27.04
2022-08-27T03:08:26.482Z,27.02
2022-08-27T03:08:52.226Z,27.02
2022-08-27T03:09:15.245Z,27.05
2022-08-27T03:09:36.944Z,27.01
2022-08-27T03:09:58.892Z,27.04
2022-08-27T03:10:23.195Z,27.04
2022-08-27T03:10:45.558Z,27.06
2022-08-27T03:11:08.648Z,27.01
2022-08-27T03:11:31.858Z,27.01
2022-08-27T03:11:55.027Z,27.01
2022-08-27T03:12:16.747Z,27.02
2022-08-27T03:12:38.393Z,27.03
2022-08-27T03:13:00.011Z,27.01
2022-08-27T03:13:22.771Z,27.00
2022-08-27T03:13:44.442Z,26.98
2022-08-27T03:14:06.051Z,26.98
2022-08-27T03:14:27.868Z,26.98
2022-08-27T03:14:50.489Z,26.99
2022-08-27T03:15:14.758Z,26.98
2022-08-27T03:15:36.427Z,26.97
2022-08-27T03:15:58.192Z,26.97
2022-08-27T03:16:21.199Z,26.97
2022-08-27T03:16:43.135Z,26.99
2022-08-27T03:17:19.684Z,26.99
2022-08-27T03:17:59.812Z,26.98
2022-08-27T03:18:21.846Z,26.96
2022-08-27T03:18:43.568Z,26.97
2022-08-27T03:19:07.227Z,26.96
2022-08-27T03:19:28.923Z,26.98
2022-08-27T03:19:51.569Z,26.96
2022-08-27T03:20:13.363Z,26.97
2022-08-27T03:20:40.708Z,26.98
2022-08-27T03:21:03.540Z,27.00
2022-08-27T03:21:25.935Z,26.98
2022-08-27T03:21:54.727Z,27.01
2022-08-27T03:22:16.825Z,27.03
2022-08-27T03:22:40.105Z,27.04
2022-08-27T03:23:01.818Z,27.01
2022-08-27T03:23:25.980Z,26.99
2022-08-27T03:23:48.588Z,26.99
2022-08-27T03:24:14.839Z,27.01
2022-08-27T03:24:36.557Z,26.99
2022-08-27T03:24:58.398Z,27.00
2022-08-27T03:25:20.999Z,26.99
2022-08-27T03:25:51.161Z,26.98
2022-08-27T03:26:14.963Z,26.97
2022-08-27T03:26:36.625Z,26.97
2022-08-27T03:26:59.153Z,26.96
2022-08-27T03:27:22.040Z,26.94
2022-08-27T03:27:43.932Z,26.92
2022-08-27T03:28:09.566Z,26.93
2022-08-27T03:28:46.644Z,26.92
2022-08-27T03:29:08.314Z,26.94
2022-08-27T03:29:29.986Z,26.96
2022-08-27T03:29:51.732Z,26.95
2022-08-27T03:30:16.716Z,26.90
2022-08-27T03:30:39.327Z,26.97
2022-08-27T03:31:03.789Z,26.94
2022-08-27T03:31:27.372Z,26.96
2022-08-27T03:31:49.128Z,26.94
2022-08-27T03:32:11.753Z,26.93
2022-08-27T03:32:34.755Z,26.96
2022-08-27T03:32:56.432Z,26.97
2022-08-27T03:33:19.856Z,26.97
2022-08-27T03:33:43.425Z,26.97
2022-08-27T03:34:07.357Z,27.00
2022-08-27T03:34:29.074Z,26.99
2022-08-27T03:34:50.848Z,26.99
2022-08-27T03:35:13.864Z,26.99
2022-08-27T03:35:36.825Z,26.99
2022-08-27T03:35:58.897Z,27.02
2022-08-27T03:36:21.984Z,27.01
2022-08-27T03:36:43.668Z,26.99
2022-08-27T03:37:08.445Z,27.00
2022-08-27T03:37:30.116Z,26.97
2022-08-27T03:37:52.737Z,27.01
2022-08-27T03:38:14.589Z,27.02
2022-08-27T03:38:36.767Z,27.01
2022-08-27T03:38:59.481Z,27.00
2022-08-27T03:39:21.085Z,27.01
2022-08-27T03:39:42.771Z,27.00
2022-08-27T03:40:06.146Z,26.96
2022-08-27T03:40:27.857Z,26.97
2022-08-27T03:40:51.200Z,26.97
2022-08-27T03:41:16.019Z,26.98
2022-08-27T03:41:40.015Z,26.97
2022-08-27T03:42:16.756Z,26.98
2022-08-27T03:42:39.539Z,27.00
2022-08-27T03:43:01.252Z,27.01
2022-08-27T03:43:25.022Z,27.03
2022-08-27T03:43:47.676Z,27.02
2022-08-27T03:44:10.308Z,27.02
2022-08-27T03:44:38.398Z,27.03
2022-08-27T03:45:00.390Z,27.04
2022-08-27T03:45:22.152Z,27.03
2022-08-27T03:46:00.404Z,27.04
2022-08-27T03:46:23.855Z,27.04
2022-08-27T03:46:45.752Z,27.05
2022-08-27T03:47:07.598Z,27.07
2022-08-27T03:47:30.255Z,27.05
2022-08-27T03:47:52.168Z,27.08
2022-08-27T03:48:14.430Z,27.06
2022-08-27T03:48:36.545Z,27.08
2022-08-27T03:48:59.215Z,27.08
2022-08-27T03:49:22.403Z,27.07
2022-08-27T03:49:44.204Z,27.04
2022-08-27T03:50:07.934Z,27.08
2022-08-27T03:50:30.597Z,27.05
2022-08-27T03:50:52.268Z,27.05
2022-08-27T03:51:15.445Z,27.06
2022-08-27T03:51:37.131Z,27.07
2022-08-27T03:52:00.095Z,27.06
2022-08-27T03:52:21.797Z,27.06
2022-08-27T03:52:43.484Z,27.04
2022-08-27T03:53:05.536Z,27.04
2022-08-27T03:53:28.265Z,27.02
2022-08-27T03:53:50.179Z,27.05
2022-08-27T03:54:11.885Z,27.05
2022-08-27T03:54:34.375Z,27.05
2022-08-27T03:54:57.056Z,27.05
2022-08-27T03:55:18.796Z,27.05
2022-08-27T03:55:42.073Z,27.06
2022-08-27T03:56:06.201Z,27.09
2022-08-27T03:56:29.374Z,27.10
2022-08-27T03:56:51.328Z,27.12
2022-08-27T03:57:13.052Z,27.11
2022-08-27T03:57:35.422Z,27.11
2022-08-27T03:57:58.112Z,27.12
2022-08-27T03:58:20.136Z,27.12
2022-08-27T03:58:41.816Z,27.10
2022-08-27T03:59:03.777Z,27.10
2022-08-27T03:59:25.440Z,27.03
2022-08-27T03:59:48.240Z,27.06
2022-08-27T04:00:15.579Z,27.03
2022-08-27T04:00:39.261Z,27.01
2022-08-27T04:01:02.311Z,27.00
2022-08-27T04:01:25.100Z,26.98
2022-08-27T04:01:47.274Z,26.99
2022-08-27T04:02:09.190Z,27.01
2022-08-27T04:02:31.438Z,27.01
2022-08-27T04:02:54.754Z,27.03
2022-08-27T04:03:16.526Z,27.01
2022-08-27T04:03:38.228Z,26.99
2022-08-27T04:04:00.315Z,26.99
2022-08-27T04:04:23.735Z,27.00
2022-08-27T04:04:45.507Z,27.01
2022-08-27T04:05:10.530Z,27.03
2022-08-27T04:05:32.826Z,27.00
2022-08-27T04:05:55.552Z,27.00
2022-08-27T04:06:17.812Z,26.98
2022-08-27T04:06:41.775Z,26.99
2022-08-27T04:07:04.050Z,26.95
2022-08-27T04:07:25.727Z,26.96
2022-08-27T04:07:47.616Z,26.96
2022-08-27T04:08:10.830Z,26.97
2022-08-27T04:08:33.017Z,26.95
2022-08-27T04:08:54.756Z,26.92
2022-08-27T04:09:16.843Z,26.91
2022-08-27T04:09:39.627Z,26.93
2022-08-27T04:10:01.316Z,26.92
2022-08-27T04:10:23.205Z,26.85
2022-08-27T04:10:46.453Z,26.84
2022-08-27T04:11:08.122Z,26.86
2022-08-27T04:11:33.533Z,26.84
2022-08-27T04:11:55.536Z,26.86
2022-08-27T04:12:18.371Z,26.89
2022-08-27T04:12:40.177Z,26.89
2022-08-27T04:13:02.200Z,26.87
2022-08-27T04:13:23.920Z,26.89
2022-08-27T04:13:46.537Z,26.85
2022-08-27T04:14:26.107Z,26.86
2022-08-27T04:14:48.947Z,26.86
2022-08-27T04:15:13.716Z,26.79
2022-08-27T04:15:39.505Z,26.80
2022-08-27T04:16:05.303Z,26.70
2022-08-27T04:16:27.153Z,26.78
2022-08-27T04:16:48.937Z,26.76
2022-08-27T04:17:15.337Z,26.77
2022-08-27T04:17:39.047Z,26.76
2022-08-27T04:18:01.312Z,26.77
2022-08-27T04:18:25.409Z,26.78
2022-08-27T04:18:47.655Z,26.78
2022-08-27T04:19:13.370Z,26.79
2022-08-27T04:19:47.309Z,26.81
2022-08-27T04:20:35.002Z,26.77
2022-08-27T04:20:58.159Z,26.76
2022-08-27T04:21:45.508Z,26.74
2022-08-27T04:22:14.831Z,26.74
2022-08-27T04:22:39.863Z,26.77
2022-08-27T04:23:05.650Z,26.76
2022-08-27T04:23:34.511Z,26.74
2022-08-27T04:23:59.845Z,26.73
2022-08-27T04:24:24.660Z,26.74
2022-08-27T04:24:56.281Z,26.70
2022-08-27T04:25:20.000Z,26.71
2022-08-27T04:25:44.542Z,26.72
2022-08-27T04:26:12.036Z,26.72
2022-08-27T04:26:37.385Z,26.73
2022-08-27T04:27:07.673Z,26.75
2022-08-27T04:27:38.104Z,26.76
2022-08-27T04:28:00.979Z,26.78
2022-08-27T04:28:22.690Z,26.76
2022-08-27T04:28:48.704Z,26.78
2022-08-27T04:29:10.614Z,26.79
2022-08-27T04:29:32.485Z,26.78
2022-08-27T04:29:55.936Z,26.79
2022-08-27T04:30:19.334Z,26.80
2022-08-27T04:30:42.849Z,26.79
2022-08-27T04:31:05.073Z,26.79
2022-08-27T04:31:27.319Z,26.80
2022-08-27T04:31:49.136Z,26.80
2022-08-27T04:32:12.397Z,26.80
2022-08-27T04:32:34.400Z,26.81
2022-08-27T04:32:56.206Z,26.80
2022-08-27T04:33:17.883Z,26.81
2022-08-27T04:33:41.117Z,26.82
2022-08-27T04:34:03.352Z,26.82
2022-08-27T04:34:25.425Z,26.84
2022-08-27T04:34:47.128Z,26.85
2022-08-27T04:35:10.160Z,26.87
2022-08-27T04:35:31.794Z,26.89
2022-08-27T04:35:58.088Z,26.89
2022-08-27T04:36:20.872Z,26.87
2022-08-27T04:36:42.517Z,26.86
2022-08-27T04:37:05.697Z,26.85
2022-08-27T04:37:31.462Z,26.86
2022-08-27T04:37:53.300Z,26.84
2022-08-27T04:38:15.264Z,26.84
2022-08-27T04:38:38.433Z,26.88
2022-08-27T04:39:00.960Z,26.85
2022-08-27T04:39:22.978Z,26.87
2022-08-27T04:39:48.602Z,26.84
2022-08-27T04:40:13.098Z,26.80
2022-08-27T04:40:55.290Z,26.82
2022-08-27T04:41:20.173Z,26.81
2022-08-27T04:41:43.800Z,26.73
2022-08-27T04:42:05.729Z,26.77
2022-08-27T04:42:28.432Z,26.77
2022-08-27T04:42:52.289Z,26.76
2022-08-27T04:43:14.653Z,26.76
2022-08-27T04:43:39.433Z,26.75
2022-08-27T04:44:06.086Z,26.75
2022-08-27T04:44:29.885Z,26.73
2022-08-27T04:44:53.323Z,26.74
2022-08-27T04:45:15.987Z,26.74
2022-08-27T04:45:44.254Z,26.74
2022-08-27T04:46:06.201Z,26.73
2022-08-27T04:46:30.515Z,26.74
2022-08-27T04:46:56.516Z,26.73
2022-08-27T04:47:18.557Z,26.73
2022-08-27T04:47:40.248Z,26.75
2022-08-27T04:48:02.032Z,26.78
2022-08-27T04:48:25.654Z,26.78
2022-08-27T04:48:47.359Z,26.79
2022-08-27T04:49:12.816Z,26.74
2022-08-27T04:49:36.729Z,26.76
2022-08-27T04:49:59.384Z,26.76
2022-08-27T04:50:21.021Z,26.79
2022-08-27T04:50:43.803Z,26.76
2022-08-27T04:51:06.581Z,26.76
2022-08-27T04:51:29.665Z,26.77
2022-08-27T04:51:53.040Z,26.76
2022-08-27T04:52:15.746Z,26.74
2022-08-27T04:52:41.080Z,26.76
2022-08-27T04:53:03.592Z,26.76
2022-08-27T04:53:27.217Z,26.73
2022-08-27T04:53:50.909Z,26.75
2022-08-27T04:54:12.894Z,26.76
2022-08-27T04:54:35.969Z,26.79
2022-08-27T04:54:58.937Z,26.77
2022-08-27T04:55:20.651Z,26.76
2022-08-27T04:55:42.799Z,26.75
2022-08-27T04:56:05.016Z,26.79
2022-08-27T04:56:27.677Z,26.78
2022-08-27T04:56:51.031Z,26.77
2022-08-27T04:57:12.890Z,26.77
2022-08-27T04:57:36.062Z,26.77
2022-08-27T04:57:57.771Z,26.76
2022-08-27T04:58:22.072Z,26.78
2022-08-27T04:58:44.288Z,26.77
2022-08-27T04:59:09.109Z,26.77
2022-08-27T04:59:33.236Z,26.74
2022-08-27T04:59:56.831Z,26.74
2022-08-27T05:00:18.956Z,26.75
2022-08-27T05:00:42.349Z,26.76
2022-08-27T05:01:05.045Z,26.76
2022-08-27T05:01:28.389Z,26.76
2022-08-27T05:01:50.593Z,26.76
2022-08-27T05:02:13.532Z,26.76
2022-08-27T05:02:35.286Z,26.75
2022-08-27T05:02:57.777Z,26.76
2022-08-27T05:03:22.521Z,26.75
2022-08-27T05:03:45.223Z,26.77
2022-08-27T05:04:08.049Z,26.77
2022-08-27T05:04:30.386Z,26.75
2022-08-27T05:04:53.085Z,26.76
2022-08-27T05:05:16.173Z,26.71
2022-08-27T05:05:38.456Z,26.73
2022-08-27T05:06:06.089Z,26.71
2022-08-27T05:06:28.309Z,26.72
2022-08-27T05:06:50.979Z,26.72
2022-08-27T05:07:16.558Z,26.71
2022-08-27T05:07:38.364Z,26.72